Time;durP1;ratioP1;P1;durP2;ratioP2;P2;SDS_P1;SDS_P2;PMS_P1;PMS_P2;Temp;Humidity;BMP_temperature;BMP_pressure;BME280_temperature;BME280_humidity;BME280_pressure;Samples;Min_cycle;Max_cycle;Signal;HPM_P1;HPM_P2
2022/12/21 00:00:09;;;;;;;68.65;26.38;;;;;;;;;;10548290;28;20016;-81
2022/12/21 00:05:10;;;;;;;62.00;28.75;;;;;;;;;;10554447;28;20023;-82
2022/12/21 00:10:10;;;;;;;80.18;26.80;;;;;;;;;;10537060;28;20023;-78
2022/12/21 00:15:10;;;;;;;48.95;22.40;;;;;;;;;;10549791;28;20062;-77
2022/12/21 00:20:12;;;;;;;65.93;26.20;;;;;;;;;;10553203;28;20088;-76
2022/12/21 00:25:12;;;;;;;55.35;25.90;;;;;;;;;;10552257;28;20028;-77
2022/12/21 00:30:14;;;;;;;51.85;23.73;;;;;;;;;;10570948;28;20530;-81
2022/12/21 00:35:15;;;;;;;59.80;25.15;;;;;;;;;;10551498;28;20027;-78
2022/12/21 00:40:15;;;;;;;53.70;25.40;;;;;;;;;;10551918;28;20016;-79
2022/12/21 00:45:16;;;;;;;57.03;25.07;;;;;;;;;;10552286;28;20019;-79
2022/12/21 00:50:16;;;;;;;55.40;25.17;;;;;;;;;;10551541;28;20586;-80
2022/12/21 00:55:16;;;;;;;72.90;25.23;;;;;;;;;;10569380;28;20040;-80
2022/12/21 01:00:17;;;;;;;49.03;24.10;;;;;;;;;;10551199;28;20073;-75
2022/12/21 01:05:17;;;;;;;47.00;21.63;;;;;;;;;;10551693;28;20023;-75
2022/12/21 01:10:17;;;;;;;47.10;22.10;;;;;;;;;;10519367;28;20511;-80
2022/12/21 01:15:18;;;;;;;64.63;22.67;;;;;;;;;;10534551;28;20056;-80
2022/12/21 01:20:19;;;;;;;58.10;22.88;;;;;;;;;;10555853;28;20042;-74
2022/12/21 01:25:21;;;;;;;47.13;21.90;;;;;;;;;;10553513;28;20124;-80
2022/12/21 01:30:21;;;;;;;53.33;23.08;;;;;;;;;;10559554;28;20023;-74
2022/12/21 01:35:21;;;;;;;53.97;24.50;;;;;;;;;;10564275;28;20454;-74
2022/12/21 01:40:21;;;;;;;44.92;21.70;;;;;;;;;;10558225;28;20043;-75
2022/12/21 01:45:28;;;;;;;53.45;23.52;;;;;;;;;;10572375;28;20028;-77
2022/12/21 01:50:38;;;;;;;46.17;24.38;;;;;;;;;;10550044;28;20383;-75
2022/12/21 01:55:38;;;;;;;63.72;22.15;;;;;;;;;;10549280;28;20040;-80
2022/12/21 02:00:39;;;;;;;57.80;24.65;;;;;;;;;;10507709;28;20039;-77
2022/12/21 02:05:43;;;;;;;54.35;23.48;;;;;;;;;;10537252;28;20478;-75
2022/12/21 02:10:44;;;;;;;46.63;21.23;;;;;;;;;;10549611;28;20020;-77
2022/12/21 02:16:00;;;;;;;58.10;25.42;;;;;;;;;;10537584;28;20024;-82
2022/12/21 02:21:03;;;;;;;38.53;15.15;;;;;;;;;;10558167;28;20034;-81
2022/12/21 02:26:22;;;;;;;28.80;11.93;;;;;;;;;;10575889;28;20480;-79
2022/12/21 02:31:41;;;;;;;25.05;13.60;;;;;;;;;;10557552;28;20024;-81
2022/12/21 02:36:55;;;;;;;37.75;15.65;;;;;;;;;;10557557;28;20022;-74
2022/12/21 02:41:59;;;;;;;45.65;18.30;;;;;;;;;;10543292;28;20027;-75
2022/12/21 02:47:15;;;;;;;39.33;16.83;;;;;;;;;;10556596;28;20051;-77
2022/12/21 02:52:27;;;;;;;41.15;19.70;;;;;;;;;;10517986;28;20020;-74
2022/12/21 02:57:32;;;;;;;38.28;20.23;;;;;;;;;;10548932;28;20551;-81
2022/12/21 03:02:40;;;;;;;48.88;19.83;;;;;;;;;;10539151;28;20413;-76
2022/12/21 03:07:40;;;;;;;;;;;;;;;;;;10540190;28;20020;-73
2022/12/21 03:12:43;;;;;;;34.50;18.65;;;;;;;;;;10574193;28;19908;-76
2022/12/21 03:18:03;;;;;;;42.30;19.58;;;;;;;;;;10558684;28;20016;-77
2022/12/21 03:23:10;;;;;;;38.50;18.05;;;;;;;;;;10569942;28;20019;-75
2022/12/21 03:28:15;;;;;;;28.50;14.80;;;;;;;;;;10594992;28;20385;-75
2022/12/21 03:33:21;;;;;;;21.33;13.32;;;;;;;;;;10549396;28;20035;-78
2022/12/21 03:38:34;;;;;;;22.60;11.05;;;;;;;;;;10555172;28;20013;-79
2022/12/21 03:43:35;;;;;;;25.75;12.85;;;;;;;;;;10554318;28;20622;-74
2022/12/21 03:48:41;;;;;;;27.98;11.05;;;;;;;;;;10572621;28;20019;-80
2022/12/21 03:53:56;;;;;;;16.90;9.85;;;;;;;;;;10552614;28;20092;-79
2022/12/21 03:58:57;;;;;;;13.45;9.23;;;;;;;;;;10512681;28;20056;-77
2022/12/21 04:04:04;;;;;;;16.65;8.65;;;;;;;;;;10536826;28;20072;-74
2022/12/21 04:09:04;;;;;;;13.52;8.27;;;;;;;;;;10553522;28;20352;-75
2022/12/21 04:14:05;;;;;;;15.52;9.73;;;;;;;;;;10552820;28;20046;-76
2022/12/21 04:29:43;;;;;;;14.55;8.30;;;;;;;;;;10530946;28;20158;-79
2022/12/21 04:34:43;;;;;;;21.92;10.10;;;;;;;;;;10552673;28;20117;-79
2022/12/21 04:39:43;;;;;;;21.98;9.43;;;;;;;;;;10551845;28;20020;-76
2022/12/21 04:44:43;;;;;;;23.83;11.65;;;;;;;;;;10552092;28;20110;-81
2022/12/21 04:49:45;;;;;;;27.40;12.80;;;;;;;;;;10552151;28;20089;-79
2022/12/21 04:54:45;;;;;;;24.75;10.48;;;;;;;;;;10551169;28;20071;-75
2022/12/21 04:59:46;;;;;;;22.13;12.82;;;;;;;;;;10515494;28;20020;-80
2022/12/21 05:04:47;;;;;;;22.85;12.43;;;;;;;;;;10513124;28;20016;-76
2022/12/21 05:09:47;;;;;;;30.65;14.52;;;;;;;;;;10542506;28;20055;-75
2022/12/21 05:14:47;;;;;;;27.70;12.57;;;;;;;;;;10514523;28;20054;-75
2022/12/21 05:19:48;;;;;;;27.02;11.98;;;;;;;;;;10538058;28;20024;-77
2022/12/21 05:24:48;;;;;;;26.85;11.88;;;;;;;;;;10500740;28;20037;-80
2022/12/21 05:29:49;;;;;;;24.20;11.97;;;;;;;;;;10478227;28;20115;-80
2022/12/21 05:34:50;;;;;;;23.58;10.77;;;;;;;;;;10508758;28;20328;-77
2022/12/21 05:39:50;;;;;;;18.83;8.57;;;;;;;;;;10507964;28;20337;-79
2022/12/21 05:44:50;;;;;;;24.55;11.18;;;;;;;;;;10525616;28;20027;-79
2022/12/21 05:49:51;;;;;;;21.13;11.60;;;;;;;;;;10507992;28;20023;-77
2022/12/21 05:54:52;;;;;;;24.13;12.68;;;;;;;;;;10513955;28;20047;-81
2022/12/21 05:59:52;;;;;;;24.23;13.18;;;;;;;;;;10564486;28;20118;-77
2022/12/21 06:04:52;;;;;;;24.90;13.55;;;;;;;;;;10550124;28;20031;-73
2022/12/21 06:09:53;;;;;;;27.90;11.98;;;;;;;;;;10553565;28;20024;-83
2022/12/21 06:14:53;;;;;;;17.85;9.10;;;;;;;;;;10545421;28;20032;-76
2022/12/21 06:19:53;;;;;;;21.45;9.75;;;;;;;;;;10550690;28;20023;-79
2022/12/21 06:24:53;;;;;;;21.30;11.43;;;;;;;;;;10547147;28;20031;-78
2022/12/21 06:29:54;;;;;;;17.83;8.63;;;;;;;;;;10549180;28;20118;-81
2022/12/21 06:34:54;;;;;;;11.85;7.05;;;;;;;;;;10517976;28;20028;-80
2022/12/21 06:39:54;;;;;;;23.30;10.63;;;;;;;;;;10541180;28;20449;-76
2022/12/21 06:44:54;;;;;;;28.50;11.77;;;;;;;;;;10548162;28;20508;-83
2022/12/21 06:49:55;;;;;;;20.25;10.23;;;;;;;;;;10547164;28;20031;-79
2022/12/21 06:54:56;;;;;;;19.67;11.55;;;;;;;;;;10555542;28;20134;-76
2022/12/21 06:59:56;;;;;;;22.80;11.10;;;;;;;;;;10552332;28;20023;-76
2022/12/21 07:04:57;;;;;;;22.77;10.52;;;;;;;;;;10556703;28;20019;-75
2022/12/21 07:09:57;;;;;;;22.63;10.45;;;;;;;;;;10574241;28;20046;-82
2022/12/21 07:14:58;;;;;;;21.52;10.80;;;;;;;;;;10585818;28;20019;-75
2022/12/21 07:19:58;;;;;;;15.95;8.70;;;;;;;;;;10570021;28;20611;-75
2022/12/21 07:24:59;;;;;;;17.67;8.88;;;;;;;;;;10565198;28;20027;-73
2022/12/21 07:29:59;;;;;;;15.70;9.75;;;;;;;;;;10574655;28;20081;-74
2022/12/21 07:35:00;;;;;;;24.50;10.07;;;;;;;;;;10554350;28;20072;-78
2022/12/21 07:40:03;;;;;;;27.55;11.25;;;;;;;;;;10554606;28;20512;-78
2022/12/21 07:45:04;;;;;;;25.27;11.68;;;;;;;;;;10554382;28;20024;-75
2022/12/21 07:50:05;;;;;;;34.13;14.77;;;;;;;;;;10553616;28;20340;-77
2022/12/21 07:55:05;;;;;;;46.42;22.10;;;;;;;;;;10571887;28;20182;-79
2022/12/21 08:00:09;;;;;;;49.92;23.02;;;;;;;;;;10571839;28;20461;-78
2022/12/21 08:05:09;;;;;;;51.53;23.95;;;;;;;;;;10564285;28;20020;-78
2022/12/21 08:10:09;;;;;;;35.83;20.70;;;;;;;;;;10552320;28;20019;-80
2022/12/21 08:15:10;;;;;;;51.70;23.95;;;;;;;;;;10551707;28;20623;-76
2022/12/21 08:20:11;;;;;;;45.72;20.25;;;;;;;;;;10552591;28;20027;-82
2022/12/21 08:25:12;;;;;;;39.70;15.90;;;;;;;;;;10551893;28;20375;-79
2022/12/21 08:30:12;;;;;;;48.45;16.20;;;;;;;;;;10570091;28;20024;-76
2022/12/21 08:35:12;;;;;;;31.20;13.50;;;;;;;;;;10551697;28;20123;-78
2022/12/21 08:40:17;;;;;;;47.67;17.13;;;;;;;;;;10535383;28;20120;-79
2022/12/21 08:45:18;;;;;;;33.65;15.52;;;;;;;;;;10535099;28;20030;-79
2022/12/21 08:50:18;;;;;;;33.77;17.47;;;;;;;;;;10521417;28;20039;-76
2022/12/21 08:55:18;;;;;;;35.40;17.00;;;;;;;;;;10508852;28;20044;-79
2022/12/21 09:00:20;;;;;;;46.22;19.95;;;;;;;;;;10526595;28;20559;-78
2022/12/21 09:05:20;;;;;;;35.55;17.65;;;;;;;;;;10543099;28;20503;-75
2022/12/21 09:10:22;;;;;;;51.33;21.17;;;;;;;;;;10550132;28;20073;-76
2022/12/21 09:15:23;;;;;;;35.10;17.80;;;;;;;;;;10549902;28;20688;-75
2022/12/21 09:20:23;;;;;;;38.85;19.80;;;;;;;;;;10550740;28;20024;-75
2022/12/21 09:25:23;;;;;;;36.97;18.98;;;;;;;;;;10554459;28;20016;-75
2022/12/21 09:30:24;;;;;;;47.25;18.63;;;;;;;;;;10564006;28;20047;-76
2022/12/21 09:35:24;;;;;;;44.87;20.70;;;;;;;;;;10554135;28;20023;-75
2022/12/21 09:40:25;;;;;;;44.40;20.13;;;;;;;;;;10549337;28;20034;-82
2022/12/21 09:45:31;;;;;;;35.28;16.80;;;;;;;;;;10549308;28;20028;-75
2022/12/21 09:50:44;;;;;;;64.85;19.67;;;;;;;;;;10549609;28;20416;-78
2022/12/21 09:55:50;;;;;;;55.53;21.58;;;;;;;;;;10541579;28;20477;-78
2022/12/21 10:00:59;;;;;;;42.45;21.17;;;;;;;;;;10507608;28;20624;-77
2022/12/21 10:06:05;;;;;;;49.10;19.80;;;;;;;;;;10534026;28;20428;-79
2022/12/21 10:11:09;;;;;;;43.53;17.60;;;;;;;;;;10548090;28;20031;-80
2022/12/21 10:16:17;;;;;;;49.08;17.88;;;;;;;;;;10548752;28;20028;-79
2022/12/21 10:21:29;;;;;;;32.20;15.80;;;;;;;;;;10566853;28;20062;-81
2022/12/21 10:26:33;;;;;;;34.78;14.82;;;;;;;;;;10547881;28;20504;-76
2022/12/21 10:31:33;;;;;;;30.60;16.42;;;;;;;;;;10566902;28;20024;-83
2022/12/21 10:36:35;;;;;;;33.73;15.37;;;;;;;;;;10552549;28;20020;-78
2022/12/21 10:41:37;;;;;;;33.63;15.95;;;;;;;;;;10556715;28;20142;-83
2022/12/21 10:46:38;;;;;;;32.55;14.68;;;;;;;;;;10575094;28;20024;-79
2022/12/21 10:51:38;;;;;;;30.03;13.53;;;;;;;;;;10526043;28;20028;-79
2022/12/21 10:56:46;;;;;;;36.57;15.47;;;;;;;;;;10540689;28;20512;-78
2022/12/21 11:01:47;;;;;;;36.72;15.40;;;;;;;;;;10554875;28;20104;-76
2022/12/21 11:06:54;;;;;;;40.47;15.10;;;;;;;;;;10555356;28;20031;-74
2022/12/21 11:11:54;;;;;;;28.17;15.40;;;;;;;;;;10572725;28;20042;-76
2022/12/21 11:16:58;;;;;;;29.48;14.13;;;;;;;;;;10553946;28;20020;-74
2022/12/21 11:21:58;;;;;;;30.55;13.82;;;;;;;;;;10573387;28;20027;-77
2022/12/21 11:27:02;;;;;;;29.47;13.07;;;;;;;;;;10553701;28;20032;-79
2022/12/21 11:32:06;;;;;;;29.88;12.40;;;;;;;;;;10553898;28;20024;-78
2022/12/21 11:37:22;;;;;;;30.10;12.52;;;;;;;;;;10538088;28;20506;-80
2022/12/21 11:42:24;;;;;;;30.15;11.52;;;;;;;;;;10537094;28;20128;-74
2022/12/21 11:47:43;;;;;;;24.92;11.93;;;;;;;;;;10552780;28;20523;-75
2022/12/21 11:52:55;;;;;;;21.45;10.88;;;;;;;;;;10563417;28;20031;-75
2022/12/21 11:57:59;;;;;;;29.02;13.48;;;;;;;;;;10580396;28;20067;-74
2022/12/21 12:02:59;;;;;;;28.40;12.10;;;;;;;;;;10585806;28;20035;-77
2022/12/21 12:08:10;;;;;;;34.33;15.52;;;;;;;;;;10562786;28;20028;-78
2022/12/21 12:13:17;;;;;;;36.50;14.80;;;;;;;;;;10553859;28;20123;-78
2022/12/21 12:18:20;;;;;;;35.80;15.75;;;;;;;;;;10552296;28;20027;-76
2022/12/21 12:23:39;;;;;;;35.35;15.48;;;;;;;;;;10571119;28;20592;-82
2022/12/21 12:28:39;;;;;;;27.70;14.60;;;;;;;;;;10551863;28;20563;-80
2022/12/21 12:33:58;;;;;;;38.22;15.43;;;;;;;;;;10551096;28;20020;-75
2022/12/21 12:39:10;;;;;;;36.30;16.45;;;;;;;;;;10551960;28;20020;-79
2022/12/21 12:44:19;;;;;;;33.05;15.32;;;;;;;;;;10570206;28;20024;-79
2022/12/21 12:49:32;;;;;;;31.42;15.52;;;;;;;;;;10551998;28;20574;-74
2022/12/21 12:54:51;;;;;;;37.15;14.88;;;;;;;;;;10543112;28;20059;-79
2022/12/21 12:59:54;;;;;;;32.10;14.68;;;;;;;;;;10517751;28;20062;-75
2022/12/21 13:05:09;;;;;;;35.20;16.40;;;;;;;;;;10508350;28;20036;-76
2022/12/21 13:10:15;;;;;;;28.02;15.95;;;;;;;;;;10512147;28;20111;-74
2022/12/21 13:15:28;;;;;;;31.83;15.00;;;;;;;;;;10513579;28;20069;-84
2022/12/21 13:20:28;;;;;;;39.63;17.15;;;;;;;;;;10542607;28;20106;-75
2022/12/21 13:25:47;;;;;;;38.80;17.95;;;;;;;;;;10524849;28;20024;-76
2022/12/21 13:30:48;;;;;;;36.60;16.17;;;;;;;;;;10521787;28;20488;-82
2022/12/21 13:35:54;;;;;;;33.67;15.95;;;;;;;;;;10564945;28;20028;-79
2022/12/21 13:41:04;;;;;;;33.45;15.15;;;;;;;;;;10549616;28;20027;-76
2022/12/21 13:46:05;;;;;;;31.52;15.13;;;;;;;;;;10544790;28;20096;-78
2022/12/21 13:51:09;;;;;;;28.02;14.15;;;;;;;;;;10544724;28;20047;-76
2022/12/21 13:56:15;;;;;;;38.05;17.25;;;;;;;;;;10563634;28;20051;-75
2022/12/21 14:01:38;;;;;;;41.97;15.15;;;;;;;;;;10547016;28;20055;-74
2022/12/21 14:06:48;;;;;;;38.15;15.00;;;;;;;;;;10545767;28;20410;-79
2022/12/21 14:11:58;;;;;;;31.92;16.17;;;;;;;;;;10542380;28;20540;-76
2022/12/21 14:17:17;;;;;;;28.08;14.18;;;;;;;;;;10547509;28;20475;-79
2022/12/21 14:22:29;;;;;;;39.42;15.52;;;;;;;;;;10565102;28;20207;-74
2022/12/21 14:27:30;;;;;;;32.67;15.02;;;;;;;;;;10578444;28;20046;-77
2022/12/21 14:32:30;;;;;;;33.63;16.40;;;;;;;;;;10590999;28;20023;-74
2022/12/21 14:37:33;;;;;;;28.20;12.93;;;;;;;;;;10571655;28;20806;-76
2022/12/21 14:42:51;;;;;;;41.92;13.65;;;;;;;;;;10565615;28;20028;-79
2022/12/21 14:48:02;;;;;;;27.20;13.32;;;;;;;;;;10545752;28;20031;-75
2022/12/21 14:53:29;;;;;;;38.97;15.77;;;;;;;;;;10545312;28;20056;-74
2022/12/21 14:58:31;;;;;;;44.40;16.60;;;;;;;;;;10543884;28;20467;-73
2022/12/21 15:03:38;;;;;;;43.75;16.20;;;;;;;;;;10546459;28;20051;-77
2022/12/21 15:08:39;;;;;;;55.20;18.45;;;;;;;;;;10545250;28;20035;-75
2022/12/21 15:13:42;;;;;;;58.70;18.80;;;;;;;;;;10543237;28;20038;-78
2022/12/21 15:18:58;;;;;;;47.53;19.38;;;;;;;;;;10545243;28;20472;-79
2022/12/21 15:24:08;;;;;;;67.15;18.38;;;;;;;;;;10562646;28;20027;-75
2022/12/21 15:29:16;;;;;;;45.30;18.92;;;;;;;;;;10545885;28;20031;-78
2022/12/21 15:34:25;;;;;;;57.97;21.67;;;;;;;;;;10549509;28;20062;-76
2022/12/21 15:39:27;;;;;;;52.47;21.45;;;;;;;;;;10552400;28;20051;-73
2022/12/21 15:44:38;;;;;;;53.60;22.00;;;;;;;;;;10548989;28;20024;-78
2022/12/21 15:49:39;;;;;;;62.40;23.85;;;;;;;;;;10535879;28;20065;-73
2022/12/21 15:54:43;;;;;;;75.05;26.08;;;;;;;;;;10552286;28;20035;-80
2022/12/21 15:59:45;;;;;;;75.93;25.98;;;;;;;;;;10642737;22;20161;-74
2022/12/21 16:04:47;;;;;;;61.83;23.77;;;;;;;;;;10527420;28;20410;-78
2022/12/21 16:09:51;;;;;;;71.95;26.48;;;;;;;;;;10527396;28;20023;-78
2022/12/21 16:14:53;;;;;;;49.10;21.77;;;;;;;;;;10531563;28;20095;-76
2022/12/21 16:19:54;;;;;;;60.85;26.13;;;;;;;;;;10509212;28;20055;-78
2022/12/21 16:24:56;;;;;;;77.53;27.38;;;;;;;;;;10513388;28;20036;-78
2022/12/21 16:29:59;;;;;;;61.67;26.83;;;;;;;;;;10454801;28;20021;-77
2022/12/21 16:35:00;;;;;;;70.57;29.92;;;;;;;;;;10475589;28;20028;-76
2022/12/21 16:40:05;;;;;;;73.38;30.10;;;;;;;;;;10472476;28;20028;-75
2022/12/21 16:45:20;;;;;;;80.32;28.77;;;;;;;;;;10464208;28;20029;-73
2022/12/21 16:50:44;;;;;;;71.50;30.70;;;;;;;;;;10471742;28;20032;-74
2022/12/21 16:55:44;;;;;;;70.90;27.83;;;;;;;;;;10474949;28;20043;-73
2022/12/21 17:00:50;;;;;;;67.97;30.77;;;;;;;;;;10461079;28;20042;-73
2022/12/21 17:05:50;;;;;;;85.45;28.38;;;;;;;;;;10453881;28;20032;-79
2022/12/21 17:10:56;;;;;;;67.97;26.40;;;;;;;;;;10463027;28;20028;-76
2022/12/21 17:16:01;;;;;;;71.07;27.50;;;;;;;;;;10472742;28;20020;-73
2022/12/21 17:21:01;;;;;;;70.05;27.25;;;;;;;;;;10462333;28;20131;-72
2022/12/21 17:26:01;;;;;;;81.78;28.55;;;;;;;;;;10461862;28;20550;-74
2022/12/21 17:31:10;;;;;;;61.40;25.48;;;;;;;;;;10454230;28;20025;-74
2022/12/21 17:36:12;;;;;;;78.72;27.42;;;;;;;;;;10460785;28;20703;-76
2022/12/21 17:41:19;;;;;;;60.97;27.50;;;;;;;;;;10484091;28;20055;-72
2022/12/21 17:46:22;;;;;;;61.73;27.23;;;;;;;;;;10481029;28;20102;-79
2022/12/21 17:51:22;;;;;;;73.97;29.23;;;;;;;;;;10466027;28;20029;-73
2022/12/21 17:56:24;;;;;;;63.08;27.77;;;;;;;;;;10469660;28;20032;-75
2022/12/21 18:01:28;;;;;;;70.72;31.13;;;;;;;;;;10481536;28;20473;-74
2022/12/21 18:06:31;;;;;;;72.10;28.50;;;;;;;;;;10463116;28;20059;-74
2022/12/21 18:11:31;;;;;;;74.95;30.60;;;;;;;;;;10464466;28;20028;-81
2022/12/21 18:16:34;;;;;;;110.27;29.77;;;;;;;;;;10461097;28;20162;-79
2022/12/21 18:21:35;;;;;;;67.32;28.98;;;;;;;;;;10461343;28;20036;-73
2022/12/21 18:26:35;;;;;;;66.20;28.10;;;;;;;;;;10500041;22;20059;-74
2022/12/21 18:31:35;;;;;;;81.40;29.88;;;;;;;;;;10556803;28;20430;-79
2022/12/21 18:36:39;;;;;;;83.70;31.08;;;;;;;;;;10525944;28;20427;-75
2022/12/21 18:41:42;;;;;;;76.43;30.30;;;;;;;;;;10553468;28;20024;-72
2022/12/21 18:46:47;;;;;;;87.82;30.63;;;;;;;;;;10565560;28;20124;-75
2022/12/21 18:51:48;;;;;;;76.90;27.08;;;;;;;;;;10562534;28;20084;-73
2022/12/21 18:56:48;;;;;;;62.40;27.05;;;;;;;;;;10573330;28;20023;-72
2022/12/21 19:01:54;;;;;;;58.05;23.83;;;;;;;;;;10551754;28;20031;-77
2022/12/21 19:06:55;;;;;;;81.10;25.13;;;;;;;;;;10539392;28;20036;-72
2022/12/21 19:12:04;;;;;;;63.33;26.57;;;;;;;;;;10551036;28;20388;-76
2022/12/21 19:17:04;;;;;;;65.70;26.00;;;;;;;;;;10558625;28;20277;-74
2022/12/21 19:22:04;;;;;;;79.82;28.25;;;;;;;;;;10567775;28;20039;-74
2022/12/21 19:27:05;;;;;;;75.88;26.33;;;;;;;;;;10481800;27;1682305;-73
2022/12/21 19:32:07;;;;;;;69.72;27.63;;;;;;;;;;10567893;28;21984;-73
2022/12/21 19:37:15;;;;;;;61.80;25.38;;;;;;;;;;10546318;28;20019;-72
2022/12/21 19:42:18;;;;;;;58.28;24.60;;;;;;;;;;10546956;28;20059;-73
2022/12/21 19:47:22;;;;;;;55.13;23.50;;;;;;;;;;10533513;28;20540;-75
2022/12/21 19:52:22;;;;;;;69.25;25.27;;;;;;;;;;10546759;28;20047;-74
2022/12/21 19:57:29;;;;;;;56.47;23.67;;;;;;;;;;10548535;28;20023;-76
2022/12/21 20:02:42;;;;;;;55.58;25.90;;;;;;;;;;10546486;28;20031;-77
2022/12/21 20:07:43;;;;;;;67.43;26.83;;;;;;;;;;10539693;28;20027;-73
2022/12/21 20:12:44;;;;;;;78.20;27.60;;;;;;;;;;10543251;28;20030;-79
2022/12/21 20:17:45;;;;;;;77.20;27.20;;;;;;;;;;10536129;28;20072;-76
2022/12/21 20:22:48;;;;;;;59.20;28.13;;;;;;;;;;10558531;28;20119;-73
2022/12/21 20:27:50;;;;;;;98.47;28.92;;;;;;;;;;10543939;28;20094;-74
2022/12/21 20:32:53;;;;;;;69.43;31.45;;;;;;;;;;10558955;28;20085;-75
2022/12/21 20:38:02;;;;;;;73.75;30.90;;;;;;;;;;10543683;28;20023;-76
2022/12/21 20:48:21;;;;;;;74.53;31.25;;;;;;;;;;10566095;28;20031;-72
2022/12/21 20:53:22;;;;;;;72.37;31.50;;;;;;;;;;10547327;28;20483;-73
2022/12/21 20:58:22;;;;;;;79.28;29.70;;;;;;;;;;10542015;28;20095;-75
2022/12/21 21:03:25;;;;;;;84.05;29.15;;;;;;;;;;10543840;28;20039;-80
2022/12/21 21:08:26;;;;;;;62.55;25.80;;;;;;;;;;10566439;28;20114;-78
2022/12/21 21:13:26;;;;;;;58.65;26.30;;;;;;;;;;10581313;22;20052;-77
2022/12/21 21:18:26;;;;;;;58.75;25.70;;;;;;;;;;10460182;28;20116;-77
2022/12/21 21:23:27;;;;;;;61.22;26.63;;;;;;;;;;10458371;28;20035;-82
2022/12/21 21:28:28;;;;;;;80.00;30.75;;;;;;;;;;10430358;28;20587;-81
2022/12/21 21:33:28;;;;;;;61.38;29.52;;;;;;;;;;10401970;28;20045;-79
2022/12/21 21:43:50;;;;;;;66.60;32.22;;;;;;;;;;10418294;28;20275;-71
2022/12/21 21:48:50;;;;;;;72.70;33.00;;;;;;;;;;10427789;28;20028;-74
2022/12/21 21:53:50;;;;;;;71.05;31.63;;;;;;;;;;10434463;28;20492;-77
2022/12/21 21:58:51;;;;;;;85.60;35.95;;;;;;;;;;10418620;28;20447;-75
2022/12/21 22:03:51;;;;;;;70.37;33.57;;;;;;;;;;10384946;28;20030;-78
2022/12/21 22:08:51;;;;;;;69.72;32.30;;;;;;;;;;10424410;28;20039;-75
2022/12/21 22:13:52;;;;;;;33.40;16.90;;;;;;;;;;10450975;28;20415;-73
2022/12/21 22:18:52;;;;;;;69.65;30.30;;;;;;;;;;10447619;28;20090;-77
2022/12/21 22:45:51;;;;;;;73.28;32.85;;;;;;;;;;10492828;28;20028;-73
2022/12/21 22:51:04;;;;;;;75.57;35.20;;;;;;;;;;10487776;28;20036;-77
2022/12/21 22:56:06;;;;;;;68.65;32.72;;;;;;;;;;10466555;28;20667;-74
2022/12/21 23:01:14;;;;;;;72.13;34.05;;;;;;;;;;10464419;28;20021;-74
2022/12/21 23:06:23;;;;;;;81.80;34.25;;;;;;;;;;10455549;28;20036;-76
2022/12/21 23:11:32;;;;;;;67.70;32.47;;;;;;;;;;10473125;28;20032;-76
2022/12/21 23:16:33;;;;;;;48.00;20.83;;;;;;;;;;10455017;28;20434;-74
